Time;durP1;ratioP1;P1;durP2;ratioP2;P2;SDS_P1;SDS_P2;PMS_P1;PMS_P2;Temp;Humidity;BMP_temperature;BMP_pressure;BME280_temperature;BME280_humidity;BME280_pressure;Samples;Min_cycle;Max_cycle;Signal;HPM_P1;HPM_P2
2023/09/08 00:02:04;;;;;;;19.67;15.70;;;;;;;;;;5089628;28;20028;-60
2023/09/08 00:04:30;;;;;;;18.98;14.80;;;;;;;;;;5079129;28;20072;-59
2023/09/08 00:06:56;;;;;;;19.05;14.75;;;;;;;;;;5089707;28;20032;-59
2023/09/08 00:09:22;;;;;;;21.13;14.73;;;;;;;;;;5089499;28;20020;-60
2023/09/08 00:11:48;;;;;;;20.08;16.15;;;;;;;;;;5081221;28;20039;-56
2023/09/08 00:14:14;;;;;;;19.23;14.93;;;;;;;;;;5077357;28;20487;-62
2023/09/08 00:16:42;;;;;;;19.92;15.65;;;;;;;;;;5081407;28;20032;-58
2023/09/08 00:19:08;;;;;;;22.60;15.68;;;;;;;;;;5089675;28;20504;-55
2023/09/08 00:21:34;;;;;;;21.55;15.55;;;;;;;;;;5088565;28;20040;-55
2023/09/08 00:24:00;;;;;;;23.70;16.02;;;;;;;;;;5088831;28;20107;-57
2023/09/08 00:26:26;;;;;;;20.05;15.52;;;;;;;;;;5089201;28;20110;-60
2023/09/08 00:28:52;;;;;;;19.73;15.73;;;;;;;;;;5089444;28;20028;-60
2023/09/08 00:31:18;;;;;;;20.38;15.32;;;;;;;;;;5089685;28;20413;-59
2023/09/08 00:33:44;;;;;;;20.30;16.08;;;;;;;;;;5089754;28;20493;-59
2023/09/08 00:36:10;;;;;;;19.70;15.38;;;;;;;;;;5092451;28;20028;-59
2023/09/08 00:38:36;;;;;;;21.70;15.75;;;;;;;;;;5093014;28;20095;-59
2023/09/08 00:41:02;;;;;;;20.20;15.60;;;;;;;;;;5091756;28;20063;-59
2023/09/08 00:43:28;;;;;;;20.30;16.25;;;;;;;;;;5093195;28;20035;-59
2023/09/08 00:45:55;;;;;;;23.23;16.90;;;;;;;;;;5092274;28;20040;-59
2023/09/08 00:48:21;;;;;;;24.30;16.33;;;;;;;;;;5092854;28;20020;-58
2023/09/08 00:50:48;;;;;;;21.83;16.23;;;;;;;;;;5092887;28;20027;-60
2023/09/08 00:53:14;;;;;;;20.77;16.13;;;;;;;;;;5091429;28;20016;-60
2023/09/08 00:55:41;;;;;;;22.48;15.70;;;;;;;;;;5092052;28;20081;-59
2023/09/08 00:58:07;;;;;;;21.05;16.27;;;;;;;;;;5091221;28;20521;-58
2023/09/08 01:00:33;;;;;;;21.42;16.08;;;;;;;;;;5092479;28;20035;-59
2023/09/08 01:03:00;;;;;;;23.05;16.80;;;;;;;;;;5091469;28;20024;-58
2023/09/08 01:05:26;;;;;;;20.88;16.50;;;;;;;;;;5091956;28;20114;-61
2023/09/08 01:07:52;;;;;;;21.63;16.95;;;;;;;;;;5092724;28;20016;-55
2023/09/08 01:10:18;;;;;;;22.10;16.98;;;;;;;;;;5092393;28;20073;-60
2023/09/08 01:12:44;;;;;;;20.73;15.95;;;;;;;;;;5092623;28;20024;-60
2023/09/08 01:15:10;;;;;;;21.05;16.00;;;;;;;;;;5091746;28;20031;-60
2023/09/08 01:17:36;;;;;;;21.88;16.20;;;;;;;;;;5092511;28;20016;-60
2023/09/08 01:20:05;;;;;;;23.27;15.80;;;;;;;;;;5092225;28;20077;-60
2023/09/08 01:22:37;;;;;;;22.50;15.57;;;;;;;;;;5092270;28;20436;-59
2023/09/08 01:25:03;;;;;;;22.20;16.48;;;;;;;;;;5091637;28;20145;-60
2023/09/08 01:27:31;;;;;;;23.42;16.92;;;;;;;;;;5091042;28;20484;-60
2023/09/08 01:29:57;;;;;;;21.70;15.60;;;;;;;;;;5092156;28;20472;-55
2023/09/08 01:32:24;;;;;;;22.48;16.23;;;;;;;;;;5092161;28;20076;-57
2023/09/08 01:34:50;;;;;;;20.95;16.23;;;;;;;;;;5091423;28;20510;-57
2023/09/08 01:37:16;;;;;;;24.63;16.58;;;;;;;;;;5092081;28;20031;-55
2023/09/08 01:39:42;;;;;;;21.80;16.63;;;;;;;;;;5090448;28;20157;-58
2023/09/08 01:42:08;;;;;;;20.33;15.45;;;;;;;;;;5091795;28;20107;-59
2023/09/08 01:44:34;;;;;;;21.08;16.20;;;;;;;;;;5091283;28;20488;-60
2023/09/08 01:47:00;;;;;;;20.92;16.40;;;;;;;;;;5090929;28;20024;-57
2023/09/08 01:49:26;;;;;;;22.75;16.23;;;;;;;;;;5090493;28;20114;-57
2023/09/08 01:51:52;;;;;;;20.98;16.35;;;;;;;;;;5091914;28;20048;-59
2023/09/08 01:54:18;;;;;;;21.27;16.90;;;;;;;;;;5090786;28;20024;-59
2023/09/08 01:56:44;;;;;;;22.45;17.85;;;;;;;;;;5091228;28;20043;-60
2023/09/08 01:59:10;;;;;;;20.40;16.52;;;;;;;;;;5091416;28;20032;-59
2023/09/08 02:01:36;;;;;;;21.65;16.98;;;;;;;;;;5091465;28;20085;-60
2023/09/08 02:04:02;;;;;;;22.45;16.80;;;;;;;;;;5090637;28;20028;-62
2023/09/08 02:06:28;;;;;;;24.05;16.25;;;;;;;;;;5091053;28;20032;-60
2023/09/08 02:08:54;;;;;;;23.67;17.23;;;;;;;;;;5091241;28;20482;-60
2023/09/08 02:11:20;;;;;;;21.45;16.88;;;;;;;;;;5090102;28;20035;-59
2023/09/08 02:13:46;;;;;;;20.65;17.00;;;;;;;;;;5091309;28;20103;-58
2023/09/08 02:16:15;;;;;;;21.73;16.02;;;;;;;;;;5090736;28;20460;-58
2023/09/08 02:18:45;;;;;;;23.08;16.55;;;;;;;;;;5091185;28;20020;-59
2023/09/08 02:21:11;;;;;;;21.70;16.02;;;;;;;;;;5091053;28;20028;-61
2023/09/08 02:23:37;;;;;;;20.60;16.30;;;;;;;;;;5090850;28;20032;-61
2023/09/08 02:26:03;;;;;;;22.13;15.82;;;;;;;;;;5090256;28;20024;-61
2023/09/08 02:28:29;;;;;;;21.55;16.38;;;;;;;;;;5091000;28;20039;-60
2023/09/08 02:30:56;;;;;;;20.77;16.33;;;;;;;;;;5090996;28;20027;-61
2023/09/08 02:33:21;;;;;;;21.65;16.40;;;;;;;;;;5090934;28;20020;-60
2023/09/08 02:35:47;;;;;;;21.10;16.85;;;;;;;;;;5090108;28;20117;-60
2023/09/08 02:38:13;;;;;;;22.00;16.75;;;;;;;;;;5090796;28;20032;-60
2023/09/08 02:40:39;;;;;;;22.83;16.20;;;;;;;;;;5090630;28;20056;-60
2023/09/08 02:43:05;;;;;;;23.75;17.02;;;;;;;;;;5089650;28;20115;-60
2023/09/08 02:45:31;;;;;;;28.90;16.88;;;;;;;;;;5088395;28;20580;-60
2023/09/08 02:47:57;;;;;;;25.27;17.08;;;;;;;;;;5089134;28;20107;-61
2023/09/08 02:50:23;;;;;;;23.70;17.02;;;;;;;;;;5090528;28;20054;-59
2023/09/08 02:52:50;;;;;;;24.25;17.17;;;;;;;;;;5090646;28;20044;-59
2023/09/08 02:55:16;;;;;;;21.20;16.65;;;;;;;;;;5089710;28;20404;-59
2023/09/08 02:57:42;;;;;;;22.00;16.27;;;;;;;;;;5088986;28;20064;-58
2023/09/08 03:00:08;;;;;;;21.25;17.10;;;;;;;;;;5090088;28;20122;-56
2023/09/08 03:02:34;;;;;;;21.90;16.85;;;;;;;;;;5090114;28;20061;-59
2023/09/08 03:05:00;;;;;;;28.63;16.73;;;;;;;;;;5089525;28;20376;-59
2023/09/08 03:07:27;;;;;;;22.52;16.85;;;;;;;;;;5088897;28;20113;-56
2023/09/08 03:09:53;;;;;;;22.83;16.42;;;;;;;;;;5088831;28;20553;-59
2023/09/08 03:12:19;;;;;;;22.27;16.35;;;;;;;;;;5090112;28;20137;-58
2023/09/08 03:14:45;;;;;;;21.67;16.85;;;;;;;;;;5088093;28;20024;-58
2023/09/08 03:17:12;;;;;;;21.63;16.85;;;;;;;;;;5090065;28;20113;-58
2023/09/08 03:19:38;;;;;;;20.63;16.25;;;;;;;;;;5089989;28;20020;-57
2023/09/08 03:22:04;;;;;;;25.15;17.55;;;;;;;;;;5090331;28;20381;-59
2023/09/08 03:24:30;;;;;;;22.85;16.90;;;;;;;;;;5087807;28;20036;-61
2023/09/08 03:26:57;;;;;;;21.85;16.90;;;;;;;;;;5089954;28;20368;-59
2023/09/08 03:29:23;;;;;;;21.75;16.00;;;;;;;;;;5088528;28;20480;-57
2023/09/08 03:31:49;;;;;;;23.15;17.73;;;;;;;;;;5089871;28;20075;-59
2023/09/08 03:34:15;;;;;;;23.13;17.25;;;;;;;;;;5088991;28;20036;-59
2023/09/08 03:36:41;;;;;;;21.98;16.70;;;;;;;;;;5090077;28;20123;-60
2023/09/08 03:39:09;;;;;;;20.80;16.65;;;;;;;;;;5089719;28;20038;-60
2023/09/08 03:41:35;;;;;;;24.02;17.13;;;;;;;;;;5088397;28;20024;-54
2023/09/08 03:44:01;;;;;;;23.73;18.23;;;;;;;;;;5089063;28;20028;-60
2023/09/08 03:46:27;;;;;;;21.50;17.15;;;;;;;;;;5087990;28;20028;-54
2023/09/08 03:48:58;;;;;;;23.25;17.88;;;;;;;;;;5088728;28;20020;-52
2023/09/08 03:51:24;;;;;;;23.30;17.83;;;;;;;;;;5088319;28;20032;-59
2023/09/08 03:53:51;;;;;;;22.20;16.80;;;;;;;;;;5089719;28;20035;-53
2023/09/08 03:56:17;;;;;;;21.80;16.95;;;;;;;;;;5089323;28;20093;-64
2023/09/08 03:58:43;;;;;;;21.90;17.08;;;;;;;;;;5089692;28;20043;-60
2023/09/08 04:01:09;;;;;;;22.83;17.83;;;;;;;;;;5089783;28;20111;-59
2023/09/08 04:03:35;;;;;;;22.08;17.65;;;;;;;;;;5089919;28;20727;-55
2023/09/08 04:06:01;;;;;;;22.30;16.98;;;;;;;;;;5088815;28;20024;-58
2023/09/08 04:08:27;;;;;;;22.15;17.35;;;;;;;;;;5089608;28;20017;-59
2023/09/08 04:10:53;;;;;;;23.67;18.27;;;;;;;;;;5092306;28;20475;-58
2023/09/08 04:13:19;;;;;;;25.05;19.30;;;;;;;;;;5093657;28;20052;-56
2023/09/08 04:15:45;;;;;;;23.35;18.42;;;;;;;;;;5093317;28;20024;-57
2023/09/08 04:18:11;;;;;;;23.58;18.40;;;;;;;;;;5093598;28;20027;-55
2023/09/08 04:20:36;;;;;;;24.67;18.40;;;;;;;;;;5093614;28;20434;-54
2023/09/08 04:23:02;;;;;;;26.60;18.35;;;;;;;;;;5093422;28;20032;-53
2023/09/08 04:25:28;;;;;;;23.55;17.70;;;;;;;;;;5091336;28;20072;-61
2023/09/08 04:27:54;;;;;;;27.33;18.65;;;;;;;;;;5093436;28;20108;-57
2023/09/08 04:30:21;;;;;;;21.30;17.30;;;;;;;;;;5093292;28;20028;-57
2023/09/08 04:32:47;;;;;;;22.98;18.42;;;;;;;;;;5093374;28;20426;-59
2023/09/08 04:35:13;;;;;;;23.17;17.83;;;;;;;;;;5092300;28;20465;-60
2023/09/08 04:37:40;;;;;;;27.50;18.55;;;;;;;;;;5093242;28;20035;-60
2023/09/08 04:40:07;;;;;;;22.10;17.95;;;;;;;;;;5093109;28;20020;-60
2023/09/08 04:42:33;;;;;;;27.40;19.23;;;;;;;;;;5091744;28;20070;-60
2023/09/08 04:44:59;;;;;;;25.88;19.25;;;;;;;;;;5092263;28;20028;-61
2023/09/08 04:47:25;;;;;;;24.67;17.63;;;;;;;;;;5091746;28;20116;-60
2023/09/08 04:49:51;;;;;;;26.13;18.67;;;;;;;;;;5092053;28;20379;-60
2023/09/08 04:52:17;;;;;;;26.48;18.48;;;;;;;;;;5092969;28;20095;-59
2023/09/08 04:54:43;;;;;;;25.95;18.85;;;;;;;;;;5092307;28;20023;-60
2023/09/08 04:57:09;;;;;;;27.45;19.33;;;;;;;;;;5091496;28;20107;-58
2023/09/08 04:59:36;;;;;;;23.98;18.42;;;;;;;;;;5092635;28;20036;-60
2023/09/08 05:02:02;;;;;;;27.65;18.80;;;;;;;;;;5092620;28;20024;-55
2023/09/08 05:04:28;;;;;;;23.73;17.50;;;;;;;;;;5091943;28;20032;-56
2023/09/08 05:06:54;;;;;;;30.42;19.85;;;;;;;;;;5092446;28;20098;-54
2023/09/08 05:09:20;;;;;;;26.17;18.58;;;;;;;;;;5092559;28;20024;-54
2023/09/08 05:11:46;;;;;;;31.00;18.25;;;;;;;;;;5092435;28;20071;-57
2023/09/08 05:14:12;;;;;;;27.17;18.95;;;;;;;;;;5091768;28;20024;-57
2023/09/08 05:16:49;;;;;;;23.77;19.55;;;;;;;;;;5093187;28;20020;-54
2023/09/08 05:19:15;;;;;;;27.20;20.88;;;;;;;;;;5092707;28;20024;-59
2023/09/08 05:21:43;;;;;;;26.20;18.77;;;;;;;;;;5091833;28;20456;-58
2023/09/08 05:24:09;;;;;;;25.60;18.80;;;;;;;;;;5092565;28;20066;-61
2023/09/08 05:26:37;;;;;;;25.58;18.80;;;;;;;;;;5093135;28;20039;-60
2023/09/08 05:29:03;;;;;;;26.87;18.90;;;;;;;;;;5092763;28;20020;-58
2023/09/08 05:31:29;;;;;;;23.10;17.88;;;;;;;;;;5092917;28;20146;-63
2023/09/08 05:33:55;;;;;;;23.98;18.25;;;;;;;;;;5090312;28;20024;-57
2023/09/08 05:36:21;;;;;;;29.90;18.65;;;;;;;;;;5091684;28;20533;-58
2023/09/08 05:38:47;;;;;;;25.63;18.02;;;;;;;;;;5091989;28;20036;-58
2023/09/08 05:41:13;;;;;;;25.42;17.55;;;;;;;;;;5091939;28;20129;-57
2023/09/08 05:43:39;;;;;;;26.27;18.88;;;;;;;;;;5091668;28;20070;-60
2023/09/08 05:46:05;;;;;;;24.85;18.60;;;;;;;;;;5090757;28;20051;-59
2023/09/08 05:48:31;;;;;;;23.67;17.88;;;;;;;;;;5091734;28;20488;-59
2023/09/08 05:50:58;;;;;;;28.45;18.60;;;;;;;;;;5089943;28;20041;-57
2023/09/08 05:53:24;;;;;;;26.23;18.23;;;;;;;;;;5090008;28;20028;-57
2023/09/08 05:55:50;;;;;;;26.17;18.77;;;;;;;;;;5090873;28;20054;-59
2023/09/08 05:58:16;;;;;;;24.27;17.88;;;;;;;;;;5090080;28;20035;-57
2023/09/08 06:00:42;;;;;;;24.35;18.58;;;;;;;;;;5107068;23;20037;-58
2023/09/08 06:03:09;;;;;;;25.50;18.00;;;;;;;;;;5090220;28;20024;-53
2023/09/08 06:05:34;;;;;;;26.63;18.27;;;;;;;;;;5083264;28;20020;-55
2023/09/08 06:08:00;;;;;;;23.83;18.77;;;;;;;;;;5092487;28;20027;-51
2023/09/08 06:10:26;;;;;;;25.05;18.48;;;;;;;;;;5092425;28;20036;-56
2023/09/08 06:12:52;;;;;;;30.13;18.33;;;;;;;;;;5092043;28;20460;-53
2023/09/08 06:15:18;;;;;;;29.77;19.02;;;;;;;;;;5091536;28;20067;-54
2023/09/08 06:17:46;;;;;;;21.80;17.98;;;;;;;;;;5090892;28;20023;-58
2023/09/08 06:20:12;;;;;;;25.60;18.38;;;;;;;;;;5090671;28;20031;-57
2023/09/08 06:22:38;;;;;;;24.50;18.88;;;;;;;;;;5090940;28;20490;-56
2023/09/08 06:25:04;;;;;;;24.13;17.80;;;;;;;;;;5089890;28;20028;-56
2023/09/08 06:27:30;;;;;;;23.50;18.23;;;;;;;;;;5091720;28;20081;-56
2023/09/08 06:29:57;;;;;;;23.77;17.60;;;;;;;;;;5091511;28;20082;-55
2023/09/08 06:32:23;;;;;;;22.48;17.83;;;;;;;;;;5091261;28;20031;-54
2023/09/08 06:34:49;;;;;;;24.33;18.33;;;;;;;;;;5078360;28;20024;-56
2023/09/08 06:37:15;;;;;;;28.05;19.23;;;;;;;;;;5062519;28;20029;-56
2023/09/08 06:39:41;;;;;;;25.23;18.83;;;;;;;;;;5070373;28;20365;-56
2023/09/08 06:42:07;;;;;;;24.30;17.38;;;;;;;;;;5071255;28;20033;-56
2023/09/08 06:44:33;;;;;;;23.58;17.50;;;;;;;;;;5070681;28;20028;-55
2023/09/08 06:46:59;;;;;;;25.73;17.73;;;;;;;;;;5071342;28;20028;-56
2023/09/08 06:49:25;;;;;;;26.48;18.58;;;;;;;;;;5071132;28;20392;-54
2023/09/08 06:51:51;;;;;;;28.75;18.10;;;;;;;;;;5069793;28;20024;-54
2023/09/08 06:54:17;;;;;;;25.60;18.35;;;;;;;;;;5070315;28;20020;-55
2023/09/08 06:56:43;;;;;;;24.67;19.13;;;;;;;;;;5070826;28;20342;-54
2023/09/08 06:59:09;;;;;;;23.88;16.90;;;;;;;;;;5071227;28;20138;-55
2023/09/08 07:01:35;;;;;;;24.98;17.85;;;;;;;;;;5070728;28;20036;-57
2023/09/08 07:04:02;;;;;;;22.65;18.02;;;;;;;;;;5069171;28;20036;-57
2023/09/08 07:06:28;;;;;;;22.88;17.67;;;;;;;;;;5070741;28;20028;-55
2023/09/08 07:08:53;;;;;;;23.20;17.65;;;;;;;;;;5070948;28;20024;-53
2023/09/08 07:11:19;;;;;;;22.25;17.95;;;;;;;;;;5070727;28;20016;-56
2023/09/08 07:13:45;;;;;;;23.38;17.20;;;;;;;;;;5069386;28;20483;-55
2023/09/08 07:16:11;;;;;;;22.20;17.40;;;;;;;;;;5070155;28;20087;-55
2023/09/08 07:18:38;;;;;;;21.95;17.10;;;;;;;;;;5070734;28;20052;-56
2023/09/08 07:21:04;;;;;;;21.55;17.10;;;;;;;;;;5070732;28;20025;-51
2023/09/08 07:23:30;;;;;;;22.60;16.88;;;;;;;;;;5070759;28;20040;-61
2023/09/08 07:25:56;;;;;;;27.48;17.27;;;;;;;;;;5066520;28;20369;-56
2023/09/08 07:28:22;;;;;;;28.30;16.90;;;;;;;;;;5059271;28;20012;-48
2023/09/08 07:30:48;;;;;;;22.52;15.65;;;;;;;;;;5063582;28;20473;-49
2023/09/08 07:33:14;;;;;;;21.98;15.98;;;;;;;;;;5050289;28;20029;-52
2023/09/08 07:35:40;;;;;;;21.25;15.40;;;;;;;;;;5061800;28;20027;-56
2023/09/08 07:38:07;;;;;;;23.75;16.58;;;;;;;;;;5070262;28;20060;-51
2023/09/08 07:40:34;;;;;;;22.48;16.30;;;;;;;;;;5070463;28;20021;-53
2023/09/08 07:43:00;;;;;;;22.85;16.45;;;;;;;;;;5068506;28;20048;-54
2023/09/08 07:45:26;;;;;;;23.38;16.58;;;;;;;;;;5049286;28;20156;-54
2023/09/08 07:47:52;;;;;;;21.63;15.70;;;;;;;;;;5049498;28;20055;-52
2023/09/08 07:50:22;;;;;;;21.60;16.08;;;;;;;;;;5050414;28;20079;-53
2023/09/08 07:52:49;;;;;;;21.80;16.27;;;;;;;;;;5049171;28;20536;-55
2023/09/08 07:55:15;;;;;;;21.05;16.40;;;;;;;;;;5049408;28;20047;-56
2023/09/08 07:57:42;;;;;;;24.67;16.05;;;;;;;;;;5049255;28;20124;-54
2023/09/08 08:00:12;;;;;;;20.08;15.68;;;;;;;;;;5052863;28;20029;-56
2023/09/08 08:02:48;;;;;;;24.23;16.70;;;;;;;;;;5069481;28;20025;-55
2023/09/08 08:05:14;;;;;;;23.73;16.15;;;;;;;;;;5068461;28;20082;-56
2023/09/08 08:07:40;;;;;;;20.08;16.02;;;;;;;;;;5069267;28;20486;-58
2023/09/08 08:10:06;;;;;;;24.83;16.40;;;;;;;;;;5066125;28;20453;-57
2023/09/08 08:12:33;;;;;;;21.35;16.15;;;;;;;;;;5068640;28;20522;-57
2023/09/08 08:14:59;;;;;;;22.05;16.00;;;;;;;;;;5067266;28;20531;-55
2023/09/08 08:17:26;;;;;;;19.25;16.55;;;;;;;;;;5069143;28;20029;-56
2023/09/08 08:19:52;;;;;;;21.13;16.08;;;;;;;;;;5069128;28;20029;-57
2023/09/08 08:22:18;;;;;;;21.55;17.23;;;;;;;;;;5069463;28;20029;-59
2023/09/08 08:24:44;;;;;;;21.20;16.70;;;;;;;;;;5065111;28;20109;-53
2023/09/08 08:27:10;;;;;;;21.30;16.63;;;;;;;;;;5072438;28;20036;-55
2023/09/08 08:29:36;;;;;;;21.70;16.13;;;;;;;;;;5078679;28;20032;-55
2023/09/08 08:32:02;;;;;;;23.25;16.58;;;;;;;;;;5089089;28;20024;-54
2023/09/08 08:34:28;;;;;;;19.67;16.50;;;;;;;;;;5087116;28;20081;-57
2023/09/08 08:36:54;;;;;;;21.70;16.60;;;;;;;;;;5089078;28;20036;-55
2023/09/08 08:39:20;;;;;;;20.58;16.23;;;;;;;;;;5088971;28;20103;-56
2023/09/08 08:41:46;;;;;;;20.88;17.00;;;;;;;;;;5089000;28;20613;-54
2023/09/08 08:44:13;;;;;;;21.15;16.13;;;;;;;;;;5086916;28;20127;-56
2023/09/08 08:46:40;;;;;;;19.85;15.32;;;;;;;;;;5089260;28;20538;-55
2023/09/08 08:49:08;;;;;;;19.23;15.65;;;;;;;;;;5089207;28;20027;-56
2023/09/08 08:51:35;;;;;;;19.87;15.40;;;;;;;;;;5088513;28;20020;-56
2023/09/08 08:54:04;;;;;;;20.15;15.25;;;;;;;;;;5088225;28;20039;-55
2023/09/08 08:56:30;;;;;;;21.88;15.48;;;;;;;;;;5090156;28;20020;-54
2023/09/08 08:58:58;;;;;;;18.67;15.48;;;;;;;;;;5092577;28;20031;-56
2023/09/08 09:01:25;;;;;;;19.87;15.93;;;;;;;;;;5042771;28;1123905;-54
2023/09/08 09:03:52;;;;;;;19.63;15.70;;;;;;;;;;5072314;28;20450;-54
2023/09/08 09:06:18;;;;;;;19.02;15.27;;;;;;;;;;5072820;28;20113;-57
2023/09/08 09:08:44;;;;;;;19.02;14.88;;;;;;;;;;5071772;28;20028;-57
2023/09/08 09:11:11;;;;;;;18.85;15.27;;;;;;;;;;5073040;28;20036;-55
2023/09/08 09:13:37;;;;;;;20.27;14.70;;;;;;;;;;5071720;28;20035;-55
2023/09/08 09:16:07;;;;;;;20.45;15.45;;;;;;;;;;5070542;28;20114;-57
2023/09/08 09:18:33;;;;;;;17.67;14.70;;;;;;;;;;5081121;28;20024;-56
2023/09/08 09:21:01;;;;;;;21.83;15.52;;;;;;;;;;5072747;28;20020;-58
2023/09/08 09:23:33;;;;;;;19.38;15.00;;;;;;;;;;5072662;28;20437;-54
2023/09/08 09:26:00;;;;;;;18.00;15.05;;;;;;;;;;5071941;28;20028;-56
2023/09/08 09:28:26;;;;;;;18.98;15.57;;;;;;;;;;5063243;28;20024;-56
2023/09/08 09:30:56;;;;;;;21.20;15.65;;;;;;;;;;5052326;28;20027;-55
2023/09/08 09:33:22;;;;;;;21.15;15.68;;;;;;;;;;5052933;28;20040;-56
2023/09/08 09:35:50;;;;;;;19.08;14.93;;;;;;;;;;5064782;28;20076;-55
2023/09/08 09:38:19;;;;;;;18.88;15.38;;;;;;;;;;5072687;28;20056;-56
2023/09/08 09:40:46;;;;;;;18.83;15.27;;;;;;;;;;5072651;28;20100;-57
2023/09/08 09:43:12;;;;;;;20.00;15.77;;;;;;;;;;5072570;28;20024;-57
2023/09/08 09:45:39;;;;;;;22.52;16.73;;;;;;;;;;5071734;28;20091;-56
2023/09/08 09:48:05;;;;;;;19.65;16.20;;;;;;;;;;5076038;28;20395;-56
2023/09/08 09:50:32;;;;;;;19.27;15.48;;;;;;;;;;5081471;28;20025;-57
2023/09/08 09:53:00;;;;;;;19.27;16.30;;;;;;;;;;5091260;28;20020;-57
2023/09/08 09:55:26;;;;;;;18.40;15.52;;;;;;;;;;5090496;28;20024;-57
2023/09/08 09:57:56;;;;;;;19.30;16.10;;;;;;;;;;5092086;28;20023;-57
2023/09/08 10:00:22;;;;;;;19.70;16.05;;;;;;;;;;5091843;28;20123;-54
2023/09/08 10:02:49;;;;;;;20.35;15.90;;;;;;;;;;5091979;28;20020;-56
2023/09/08 10:05:15;;;;;;;21.17;16.10;;;;;;;;;;5091229;28;20016;-56
2023/09/08 10:07:41;;;;;;;18.33;15.98;;;;;;;;;;5091433;28;20032;-56
2023/09/08 10:10:09;;;;;;;19.65;16.27;;;;;;;;;;5092290;28;20027;-56
2023/09/08 10:12:37;;;;;;;18.63;16.23;;;;;;;;;;5092161;28;20020;-56
2023/09/08 10:15:04;;;;;;;21.15;17.17;;;;;;;;;;5091362;28;20112;-56
2023/09/08 10:17:31;;;;;;;21.83;17.30;;;;;;;;;;5092054;28;20112;-56
2023/09/08 10:20:01;;;;;;;19.80;16.20;;;;;;;;;;5091976;28;20157;-53
2023/09/08 10:22:32;;;;;;;18.98;15.63;;;;;;;;;;5091748;28;20035;-56
2023/09/08 10:25:03;;;;;;;18.95;16.38;;;;;;;;;;5091136;28;20028;-57
2023/09/08 10:27:29;;;;;;;18.67;16.67;;;;;;;;;;5090544;28;20020;-56
2023/09/08 10:29:56;;;;;;;18.23;16.15;;;;;;;;;;5051573;28;20112;-56
2023/09/08 10:32:22;;;;;;;19.27;16.50;;;;;;;;;;5051373;28;20048;-53
2023/09/08 10:34:49;;;;;;;18.85;16.35;;;;;;;;;;5051353;28;20025;-55
2023/09/08 10:37:21;;;;;;;19.55;16.17;;;;;;;;;;5051341;28;20037;-54
2023/09/08 10:39:47;;;;;;;18.52;15.98;;;;;;;;;;5051494;28;20083;-53
2023/09/08 10:42:16;;;;;;;18.45;15.98;;;;;;;;;;5051606;28;20033;-55
2023/09/08 10:44:51;;;;;;;21.40;16.15;;;;;;;;;;5050646;28;20108;-56
2023/09/08 10:47:24;;;;;;;18.02;15.93;;;;;;;;;;5051237;28;20029;-52
2023/09/08 10:49:56;;;;;;;20.42;15.95;;;;;;;;;;5051195;28;20025;-55
2023/09/08 10:52:23;;;;;;;18.63;16.00;;;;;;;;;;5051473;28;20100;-56
2023/09/08 10:54:50;;;;;;;18.50;15.93;;;;;;;;;;5050460;28;20100;-53
2023/09/08 10:57:17;;;;;;;18.92;16.00;;;;;;;;;;5051402;28;20033;-56
2023/09/08 10:59:57;;;;;;;19.10;15.75;;;;;;;;;;5049740;28;20375;-55
2023/09/08 11:02:35;;;;;;;21.55;16.58;;;;;;;;;;5049661;28;20462;-56
2023/09/08 11:05:02;;;;;;;20.58;16.73;;;;;;;;;;5049564;28;20095;-56
2023/09/08 11:07:28;;;;;;;20.83;15.73;;;;;;;;;;5050320;28;20043;-53
2023/09/08 11:09:54;;;;;;;20.83;16.75;;;;;;;;;;5050506;28;20047;-54
2023/09/08 11:12:22;;;;;;;19.75;16.83;;;;;;;;;;5050161;28;20485;-56
2023/09/08 11:14:49;;;;;;;21.17;15.73;;;;;;;;;;5049704;28;20036;-57
2023/09/08 11:17:15;;;;;;;21.77;16.80;;;;;;;;;;5050740;28;20037;-57
2023/09/08 11:19:48;;;;;;;20.90;16.52;;;;;;;;;;5048554;28;20028;-57
2023/09/08 11:22:15;;;;;;;19.73;16.17;;;;;;;;;;5053346;28;20044;-57
2023/09/08 11:24:45;;;;;;;19.70;16.20;;;;;;;;;;5074069;28;20064;-52
2023/09/08 11:27:12;;;;;;;19.63;16.48;;;;;;;;;;5081358;28;20032;-57
2023/09/08 11:29:41;;;;;;;18.88;16.25;;;;;;;;;;5053400;28;20426;-55
2023/09/08 11:32:10;;;;;;;19.33;17.25;;;;;;;;;;5050342;28;20044;-56
2023/09/08 11:34:36;;;;;;;19.45;17.38;;;;;;;;;;5049789;28;20021;-57
2023/09/08 11:37:13;;;;;;;19.02;16.90;;;;;;;;;;5050750;28;20038;-53
2023/09/08 11:39:42;;;;;;;19.48;17.38;;;;;;;;;;5050298;28;20025;-55
2023/09/08 11:42:10;;;;;;;19.40;16.45;;;;;;;;;;5050259;28;20104;-56
2023/09/08 11:44:36;;;;;;;18.35;16.40;;;;;;;;;;5048328;28;20033;-56
2023/09/08 11:47:03;;;;;;;19.35;16.88;;;;;;;;;;5050141;28;20028;-56
2023/09/08 11:49:39;;;;;;;19.33;17.25;;;;;;;;;;5049161;28;20021;-56
2023/09/08 11:52:05;;;;;;;23.33;18.20;;;;;;;;;;5050180;28;20158;-56
2023/09/08 11:54:32;;;;;;;19.95;17.85;;;;;;;;;;5049439;28;20053;-55
2023/09/08 11:57:02;;;;;;;19.17;17.15;;;;;;;;;;5048834;28;20048;-53
2023/09/08 11:59:29;;;;;;;19.50;17.38;;;;;;;;;;5050125;28;20171;-54
2023/09/08 12:01:56;;;;;;;20.07;17.30;;;;;;;;;;5050170;28;20033;-52
2023/09/08 12:04:22;;;;;;;19.50;17.40;;;;;;;;;;5049688;28;20114;-51
2023/09/08 12:06:49;;;;;;;19.48;17.38;;;;;;;;;;5049997;28;20029;-55
2023/09/08 12:09:16;;;;;;;19.85;17.67;;;;;;;;;;5049651;28;20028;-55
2023/09/08 12:11:42;;;;;;;20.48;17.27;;;;;;;;;;5049837;28;20481;-55
2023/09/08 12:14:09;;;;;;;19.70;17.60;;;;;;;;;;4699826;28;9999907;-55
2023/09/08 12:16:35;;;;;;;20.60;17.63;;;;;;;;;;5059200;28;20032;-54
2023/09/08 12:19:01;;;;;;;21.35;17.70;;;;;;;;;;5051554;28;20272;-50
2023/09/08 12:21:27;;;;;;;19.42;17.20;;;;;;;;;;5046754;28;20121;-52
2023/09/08 12:23:54;;;;;;;19.25;17.17;;;;;;;;;;5046019;28;20035;-54
2023/09/08 12:26:20;;;;;;;21.40;17.40;;;;;;;;;;5053213;28;20097;-53
2023/09/08 12:28:47;;;;;;;19.90;17.52;;;;;;;;;;5074792;28;20032;-55
2023/09/08 12:31:15;;;;;;;19.58;17.58;;;;;;;;;;5063977;28;20025;-54
2023/09/08 12:33:42;;;;;;;19.58;17.58;;;;;;;;;;5055539;28;20841;-55
2023/09/08 12:36:08;;;;;;;;;;;;;;;;;;5055841;28;20100;-54
2023/09/08 12:38:34;;;;;;;19.40;17.30;;;;;;;;;;5060485;28;19954;-54
2023/09/08 12:41:00;;;;;;;19.02;17.02;;;;;;;;;;5059467;28;20025;-51
2023/09/08 12:43:26;;;;;;;19.33;17.33;;;;;;;;;;5053223;28;20040;-52
2023/09/08 12:45:52;;;;;;;19.80;17.17;;;;;;;;;;5048114;28;20450;-54
2023/09/08 12:48:18;;;;;;;19.35;17.23;;;;;;;;;;5059565;28;20029;-54
2023/09/08 12:50:44;;;;;;;19.85;17.85;;;;;;;;;;5069661;28;20033;-54
2023/09/08 12:53:10;;;;;;;19.45;17.38;;;;;;;;;;5070264;28;20536;-53
2023/09/08 12:55:36;;;;;;;22.08;17.33;;;;;;;;;;5067257;28;20036;-55
2023/09/08 12:58:02;;;;;;;19.60;17.60;;;;;;;;;;5060461;28;20028;-54
2023/09/08 13:00:28;;;;;;;19.48;17.38;;;;;;;;;;5060037;28;20404;-54
2023/09/08 13:02:54;;;;;;;19.95;17.83;;;;;;;;;;5057919;28;20025;-51
2023/09/08 13:05:20;;;;;;;19.73;17.65;;;;;;;;;;5067708;28;20082;-53
2023/09/08 13:07:46;;;;;;;20.45;17.83;;;;;;;;;;5080792;28;20127;-55
2023/09/08 13:10:12;;;;;;;19.60;17.50;;;;;;;;;;5089728;28;20058;-55
2023/09/08 13:12:38;;;;;;;19.65;17.55;;;;;;;;;;5089697;28;20506;-55
2023/09/08 13:15:05;;;;;;;19.40;17.40;;;;;;;;;;5051000;28;20402;-52
2023/09/08 13:17:31;;;;;;;19.05;17.05;;;;;;;;;;5049621;28;20697;-54
2023/09/08 13:19:57;;;;;;;19.10;16.95;;;;;;;;;;5049619;28;20039;-54
2023/09/08 13:22:23;;;;;;;18.90;16.90;;;;;;;;;;5049664;28;20036;-51
2023/09/08 13:24:49;;;;;;;18.80;16.80;;;;;;;;;;5053231;28;20020;-53
2023/09/08 13:27:17;;;;;;;20.10;17.27;;;;;;;;;;5076519;28;20028;-51
2023/09/08 13:29:43;;;;;;;19.30;17.27;;;;;;;;;;5068925;28;20492;-51
2023/09/08 13:32:09;;;;;;;19.48;17.48;;;;;;;;;;5065638;28;20033;-53
2023/09/08 13:34:36;;;;;;;19.02;17.02;;;;;;;;;;5069031;28;20039;-53
2023/09/08 13:37:02;;;;;;;19.10;17.10;;;;;;;;;;5080214;28;20024;-53
2023/09/08 13:39:29;;;;;;;20.27;18.17;;;;;;;;;;5064093;28;20028;-54
2023/09/08 13:41:55;;;;;;;19.35;17.35;;;;;;;;;;5056281;28;20031;-53
2023/09/08 13:44:23;;;;;;;20.15;18.00;;;;;;;;;;5058219;28;20021;-54
2023/09/08 13:46:49;;;;;;;21.15;17.45;;;;;;;;;;5059330;28;20036;-53
2023/09/08 13:49:16;;;;;;;19.93;17.87;;;;;;;;;;5057194;28;20086;-53
2023/09/08 13:51:42;;;;;;;19.98;17.55;;;;;;;;;;5064048;28;20028;-52
2023/09/08 13:54:08;;;;;;;20.13;18.03;;;;;;;;;;5067276;28;20091;-54
2023/09/08 13:56:34;;;;;;;19.33;17.30;;;;;;;;;;5070557;28;20027;-54
2023/09/08 13:59:01;;;;;;;20.70;18.50;;;;;;;;;;5080704;28;20110;-56
2023/09/08 14:01:29;;;;;;;19.83;17.77;;;;;;;;;;5090076;28;20535;-49
2023/09/08 14:03:55;;;;;;;20.27;18.00;;;;;;;;;;5090422;28;20032;-53
2023/09/08 14:06:21;;;;;;;20.33;18.23;;;;;;;;;;5090591;28;20035;-52
2023/09/08 14:08:47;;;;;;;20.75;18.35;;;;;;;;;;5091690;28;20536;-55
2023/09/08 14:11:13;;;;;;;20.10;18.00;;;;;;;;;;5092036;28;20044;-55
2023/09/08 14:13:39;;;;;;;21.52;18.13;;;;;;;;;;5092104;28;20023;-55